createdAt,value
2023-05-20T00:00:17.133Z,100875.97
2023-05-20T00:03:20.490Z,100869.94
2023-05-20T00:06:23.189Z,100862.28
2023-05-20T00:09:26.062Z,100856.38
2023-05-20T00:12:28.426Z,100854.37
2023-05-20T00:15:31.028Z,100859.00
2023-05-20T00:18:33.393Z,100861.91
2023-05-20T00:21:36.091Z,100858.59
2023-05-20T00:24:38.423Z,100847.59
2023-05-20T00:27:41.784Z,100845.09
2023-05-20T00:30:44.126Z,100841.63
2023-05-20T00:33:47.242Z,100840.59
2023-05-20T00:36:49.650Z,100839.53
2023-05-20T00:39:52.503Z,100839.69
2023-05-20T00:42:54.802Z,100850.22
2023-05-20T00:45:57.465Z,100849.53
2023-05-20T00:48:59.885Z,100840.94
2023-05-20T00:52:02.808Z,100839.38
2023-05-20T00:55:05.387Z,100840.13
2023-05-20T00:58:08.178Z,100840.28
2023-05-20T01:01:10.870Z,100844.84
2023-05-20T01:04:13.642Z,100839.66
2023-05-20T01:07:17.699Z,100836.31
2023-05-20T01:10:21.394Z,100840.28
2023-05-20T01:13:28.202Z,100839.63
2023-05-20T01:16:31.763Z,100843.31
2023-05-20T01:19:53.916Z,100845.06
2023-05-20T01:22:57.122Z,100842.69
2023-05-20T01:25:59.442Z,100854.09
2023-05-20T01:29:04.868Z,100848.88
2023-05-20T01:32:17.584Z,100848.62
2023-05-20T01:35:21.749Z,100850.66
2023-05-20T01:38:25.330Z,100855.31
2023-05-20T01:41:29.306Z,100852.75
2023-05-20T01:44:31.719Z,100858.72
2023-05-20T01:47:34.388Z,100858.84
2023-05-20T01:50:38.220Z,100864.06
2023-05-20T01:53:40.846Z,100864.88
2023-05-20T01:56:44.613Z,100865.84
2023-05-20T01:59:47.573Z,100862.53
2023-05-20T02:02:50.089Z,100869.50
2023-05-20T02:05:55.898Z,100863.41
2023-05-20T02:08:58.396Z,100856.50
2023-05-20T02:12:01.121Z,100858.84
2023-05-20T02:15:03.631Z,100857.03
2023-05-20T02:18:06.403Z,100870.87
2023-05-20T02:21:08.843Z,100866.50
2023-05-20T02:24:11.616Z,100864.50
2023-05-20T02:27:14.182Z,100862.00
2023-05-20T02:30:18.010Z,100871.09
2023-05-20T02:33:20.580Z,100866.94
2023-05-20T02:36:23.389Z,100862.81
2023-05-20T02:39:25.952Z,100871.78
2023-05-20T02:42:28.569Z,100872.69
2023-05-20T02:45:31.176Z,100864.78
2023-05-20T02:48:33.785Z,100879.59
2023-05-20T02:51:37.572Z,100880.75
2023-05-20T02:54:40.739Z,100877.44
2023-05-20T02:57:43.524Z,100871.50
2023-05-20T03:00:46.381Z,100874.78
2023-05-20T03:03:48.889Z,100872.38
2023-05-20T03:06:52.158Z,100871.75
2023-05-20T03:09:54.463Z,100879.50
2023-05-20T03:12:57.147Z,100885.59
2023-05-20T03:16:01.471Z,100883.06
2023-05-20T03:19:04.311Z,100878.72
2023-05-20T03:22:07.083Z,100890.91
2023-05-20T03:25:10.695Z,100883.91
2023-05-20T03:28:13.036Z,100887.34
2023-05-20T03:31:16.057Z,100892.53
2023-05-20T03:34:18.525Z,100899.34
2023-05-20T03:37:22.423Z,100894.06
2023-05-20T03:40:24.761Z,100890.47
2023-05-20T03:43:28.906Z,100894.41
2023-05-20T03:46:34.358Z,100896.03
2023-05-20T03:49:39.608Z,100901.13
2023-05-20T03:52:42.040Z,100901.03
2023-05-20T03:55:44.920Z,100901.59
2023-05-20T03:58:47.908Z,100895.03
2023-05-20T04:01:50.612Z,100900.78
2023-05-20T04:04:53.343Z,100908.34
2023-05-20T04:07:57.562Z,100908.00
2023-05-20T04:11:00.626Z,100913.91
2023-05-20T04:14:02.924Z,100917.03
2023-05-20T04:17:06.371Z,100921.03
2023-05-20T04:20:11.314Z,100920.47
2023-05-20T04:23:14.030Z,100929.25
2023-05-20T04:26:16.765Z,100927.38
2023-05-20T04:29:19.466Z,100932.97
2023-05-20T04:32:21.773Z,100941.38
2023-05-20T04:35:26.154Z,100941.25
2023-05-20T04:38:29.999Z,100938.84
2023-05-20T04:41:32.995Z,100942.13
2023-05-20T04:44:35.492Z,100943.44
2023-05-20T04:47:39.331Z,100940.38
2023-05-20T04:50:42.004Z,100943.34
2023-05-20T04:53:46.266Z,100947.28
2023-05-20T04:56:48.961Z,100938.06
2023-05-20T04:59:52.502Z,100945.41
2023-05-20T05:02:55.010Z,100933.47
2023-05-20T05:05:58.048Z,100941.63
2023-05-20T05:09:01.381Z,100953.81
2023-05-20T05:12:05.361Z,100950.38
2023-05-20T05:15:08.222Z,100948.28
2023-05-20T05:18:11.668Z,100944.88
2023-05-20T05:21:14.118Z,100941.59
2023-05-20T05:24:17.116Z,100935.97
2023-05-20T05:27:20.118Z,100937.16
2023-05-20T05:30:22.779Z,100943.34
2023-05-20T05:33:25.324Z,100940.84
2023-05-20T05:36:28.016Z,100947.00
2023-05-20T05:39:30.438Z,100946.06
2023-05-20T05:42:33.236Z,100941.72
2023-05-20T05:45:36.964Z,100940.09
2023-05-20T05:48:40.037Z,100950.41
2023-05-20T05:51:42.509Z,100945.44
2023-05-20T05:54:45.172Z,100959.34
2023-05-20T05:57:47.760Z,100958.50
2023-05-20T06:00:54.824Z,100960.62
2023-05-20T06:03:58.278Z,100956.47
2023-05-20T06:07:00.815Z,100956.88
2023-05-20T06:10:03.842Z,100959.84
2023-05-20T06:13:06.291Z,100962.50
2023-05-20T06:16:09.088Z,100954.53
2023-05-20T06:19:11.486Z,100954.34
2023-05-20T06:22:14.810Z,100958.91
2023-05-20T06:25:17.326Z,100963.03
2023-05-20T06:28:20.673Z,100958.16
2023-05-20T06:31:23.136Z,100953.09
2023-05-20T06:34:26.975Z,100954.75
2023-05-20T06:37:29.509Z,100953.97
2023-05-20T06:40:32.905Z,100961.00
2023-05-20T06:43:35.508Z,100961.41
2023-05-20T06:46:38.490Z,100954.53
2023-05-20T06:49:40.948Z,100951.72
2023-05-20T06:52:43.584Z,100950.31
2023-05-20T06:55:46.774Z,100945.81
2023-05-20T06:58:49.643Z,100943.00
2023-05-20T07:01:52.233Z,100949.63
2023-05-20T07:04:54.997Z,100947.09
2023-05-20T07:07:57.414Z,100941.25
2023-05-20T07:11:00.141Z,100946.88
2023-05-20T07:14:02.563Z,100949.69
2023-05-20T07:17:05.984Z,100948.91
2023-05-20T07:20:09.230Z,100950.47
2023-05-20T07:23:13.316Z,100941.72
2023-05-20T07:26:17.553Z,100942.16
2023-05-20T07:29:20.305Z,100925.63
2023-05-20T07:32:22.874Z,100940.88
2023-05-20T07:35:25.672Z,100922.09
2023-05-20T07:38:28.121Z,100923.31
2023-05-20T07:41:30.934Z,100922.03
2023-05-20T07:44:33.364Z,100923.06
2023-05-20T07:47:36.052Z,100929.22
2023-05-20T07:50:39.539Z,100929.84
2023-05-20T07:53:42.314Z,100933.78
2023-05-20T07:56:44.834Z,100928.37
2023-05-20T07:59:47.696Z,100931.16
2023-05-20T08:02:50.840Z,100926.19
2023-05-20T08:05:54.546Z,100919.91
2023-05-20T08:08:57.328Z,100915.13
2023-05-20T08:12:00.662Z,100910.81
2023-05-20T08:15:04.354Z,100914.31
2023-05-20T08:18:07.727Z,100918.97
2023-05-20T08:21:10.262Z,100908.75
2023-05-20T08:24:13.020Z,100900.00
2023-05-20T08:27:15.441Z,100903.00
2023-05-20T08:30:18.253Z,100905.16
2023-05-20T08:33:21.912Z,100892.94
2023-05-20T08:36:24.773Z,100890.34
2023-05-20T08:39:27.326Z,100885.63
2023-05-20T08:42:31.555Z,100882.06
2023-05-20T08:45:36.984Z,100883.91
2023-05-20T08:48:40.314Z,100882.84
2023-05-20T08:51:43.206Z,100880.13
2023-05-20T08:54:46.622Z,100880.13
2023-05-20T08:57:50.366Z,100867.00
2023-05-20T09:00:53.181Z,100862.00
2023-05-20T09:03:55.432Z,100857.94
2023-05-20T09:06:58.015Z,100861.56
2023-05-20T09:10:00.330Z,100853.16
2023-05-20T09:13:04.228Z,100861.16
2023-05-20T09:16:06.732Z,100847.19
2023-05-20T09:19:10.353Z,100848.66
2023-05-20T09:22:12.767Z,100844.09
2023-05-20T09:25:18.620Z,100842.19
2023-05-20T09:28:25.201Z,100831.66
2023-05-20T09:31:29.368Z,100826.78
2023-05-20T09:34:31.862Z,100825.44
2023-05-20T09:37:35.987Z,100822.12
2023-05-20T09:40:40.366Z,100808.94
2023-05-20T09:43:43.160Z,100805.84
2023-05-20T09:46:46.478Z,100808.81
2023-05-20T09:49:50.326Z,100799.44
2023-05-20T09:52:53.496Z,100798.03
2023-05-20T09:55:56.458Z,100791.16
2023-05-20T09:58:59.605Z,100785.94
2023-05-20T10:02:02.198Z,100783.53
2023-05-20T10:05:07.998Z,100785.31
2023-05-20T10:08:28.964Z,100789.75
2023-05-20T10:11:40.475Z,100773.47
2023-05-20T10:15:03.075Z,100766.78
2023-05-20T10:18:32.042Z,100764.88
2023-05-20T10:21:34.346Z,100761.75
2023-05-20T10:24:44.088Z,100759.59
2023-05-20T10:27:47.108Z,100758.59
2023-05-20T10:30:50.992Z,100758.84
2023-05-20T10:33:54.149Z,100753.03
2023-05-20T10:36:57.575Z,100743.53
2023-05-20T10:40:07.143Z,100734.41
2023-05-20T10:43:14.095Z,100734.44
2023-05-20T10:46:31.131Z,100730.09
2023-05-20T10:49:38.469Z,100733.78
2023-05-20T10:52:41.722Z,100728.87
2023-05-20T10:55:49.711Z,100721.41
2023-05-20T10:58:52.889Z,100724.75
2023-05-20T11:01:55.642Z,100733.16
2023-05-20T11:05:00.948Z,100724.00
2023-05-20T11:08:13.718Z,100723.94
2023-05-20T11:11:27.124Z,100714.78
2023-05-20T11:14:30.007Z,100709.03
2023-05-20T11:17:32.695Z,100716.81
2023-05-20T11:20:35.790Z,100708.44
2023-05-20T11:23:39.968Z,100710.75
2023-05-20T11:26:43.335Z,100706.22
2023-05-20T11:29:45.661Z,100701.19
2023-05-20T11:32:58.555Z,100712.22
2023-05-20T11:36:03.419Z,100695.47
2023-05-20T11:39:06.240Z,100704.13
2023-05-20T11:42:08.659Z,100701.00
2023-05-20T11:45:13.555Z,100691.03
2023-05-20T11:48:16.084Z,100696.31
2023-05-20T11:51:18.712Z,100689.16
2023-05-20T11:54:22.748Z,100693.00
2023-05-20T11:57:25.478Z,100695.09
2023-05-20T12:00:31.299Z,100684.56
2023-05-20T12:03:39.194Z,100690.28
2023-05-20T12:06:42.943Z,100684.31
2023-05-20T12:09:45.562Z,100686.53
2023-05-20T12:12:47.933Z,100682.56
2023-05-20T12:15:50.676Z,100672.78
2023-05-20T12:18:53.132Z,100682.13
2023-05-20T12:21:55.985Z,100680.94
2023-05-20T12:24:58.394Z,100667.94
2023-05-20T12:28:02.007Z,100671.94
2023-05-20T12:31:04.444Z,100665.53
2023-05-20T12:34:07.252Z,100669.09
2023-05-20T12:37:09.602Z,100669.06
2023-05-20T12:40:12.813Z,100667.75
2023-05-20T12:43:16.206Z,100658.97
2023-05-20T12:46:18.914Z,100659.59
2023-05-20T12:49:21.208Z,100657.13
2023-05-20T12:52:23.776Z,100649.88
2023-05-20T12:55:26.058Z,100661.44
2023-05-20T12:58:28.662Z,100649.84
2023-05-20T13:01:32.310Z,100649.97
2023-05-20T13:04:34.907Z,100650.81
2023-05-20T13:07:37.411Z,100633.81
2023-05-20T13:10:40.062Z,100637.31
2023-05-20T13:13:43.074Z,100640.31
2023-05-20T13:16:45.729Z,100637.34
2023-05-20T13:19:48.103Z,100626.28
2023-05-20T13:22:51.120Z,100624.16
2023-05-20T13:25:53.415Z,100624.44
2023-05-20T13:28:56.569Z,100621.34
2023-05-20T13:32:00.968Z,100619.00
2023-05-20T13:35:04.643Z,100612.00
2023-05-20T13:38:07.033Z,100611.81
2023-05-20T13:41:09.682Z,100604.31
2023-05-20T13:44:12.125Z,100607.50
2023-05-20T13:47:14.828Z,100599.31
2023-05-20T13:50:17.160Z,100594.03
2023-05-20T13:53:19.807Z,100600.47
2023-05-20T13:56:22.230Z,100592.28
2023-05-20T13:59:24.831Z,100604.00
2023-05-20T14:02:27.211Z,100591.16
2023-05-20T14:05:30.234Z,100587.91
2023-05-20T14:08:32.905Z,100588.12
2023-05-20T14:11:35.653Z,100590.09
2023-05-20T14:14:38.093Z,100591.84
2023-05-20T14:17:40.819Z,100593.00
2023-05-20T14:20:43.412Z,100589.81
2023-05-20T14:23:46.042Z,100584.91
2023-05-20T14:26:48.346Z,100580.81
2023-05-20T14:29:51.162Z,100582.25
2023-05-20T14:32:53.511Z,100581.47
2023-05-20T14:35:56.189Z,100578.34
2023-05-20T14:38:58.538Z,100568.44
2023-05-20T14:42:01.145Z,100574.16
2023-05-20T14:45:04.050Z,100569.16
2023-05-20T14:48:07.185Z,100567.50
2023-05-20T14:51:09.602Z,100559.22
2023-05-20T14:54:14.019Z,100561.34
2023-05-20T14:57:16.353Z,100555.25
2023-05-20T15:00:19.591Z,100561.41
2023-05-20T15:03:23.547Z,100563.94
2023-05-20T15:06:26.446Z,100565.47
2023-05-20T15:09:28.851Z,100564.66
2023-05-20T15:12:31.464Z,100558.16
2023-05-20T15:15:34.069Z,100563.44
2023-05-20T15:18:36.689Z,100552.03
2023-05-20T15:21:39.562Z,100550.94
2023-05-20T15:24:42.207Z,100543.78
2023-05-20T15:27:44.556Z,100541.78
2023-05-20T15:30:51.474Z,100536.69
2023-05-20T15:33:53.973Z,100540.62
2023-05-20T15:36:56.646Z,100538.84
2023-05-20T15:39:58.953Z,100536.19
2023-05-20T15:43:01.629Z,100531.72
2023-05-20T15:46:04.234Z,100529.91
2023-05-20T15:49:06.845Z,100526.94
2023-05-20T15:52:09.189Z,100523.97
2023-05-20T15:55:11.787Z,100525.94
2023-05-20T15:58:14.226Z,100521.63
2023-05-20T16:01:17.006Z,100516.47
2023-05-20T16:04:19.855Z,100526.69
2023-05-20T16:07:22.280Z,100519.13
2023-05-20T16:10:32.509Z,100522.81
2023-05-20T16:13:35.425Z,100523.91
2023-05-20T16:16:38.266Z,100521.38
2023-05-20T16:19:40.904Z,100514.66
2023-05-20T16:22:43.525Z,100525.91
2023-05-20T16:25:46.008Z,100514.25
2023-05-20T16:28:48.703Z,100520.28
2023-05-20T16:31:51.119Z,100506.56
2023-05-20T16:34:54.831Z,100515.09
2023-05-20T16:37:57.087Z,100511.00
2023-05-20T16:40:59.816Z,100511.56
2023-05-20T16:44:02.169Z,100511.00
2023-05-20T16:47:08.859Z,100516.47
2023-05-20T16:50:11.247Z,100526.13
2023-05-20T16:53:15.716Z,100521.50
2023-05-20T16:56:20.239Z,100520.22
2023-05-20T16:59:24.820Z,100519.63
2023-05-20T17:02:27.242Z,100524.38
2023-05-20T17:05:29.920Z,100528.56
2023-05-20T17:08:32.286Z,100526.09
2023-05-20T17:11:34.980Z,100527.09
2023-05-20T17:14:37.339Z,100527.34
2023-05-20T17:17:40.024Z,100528.22
2023-05-20T17:20:42.592Z,100528.63
2023-05-20T17:23:45.700Z,100530.44
2023-05-20T17:26:48.060Z,100530.47
2023-05-20T17:29:50.761Z,100533.69
2023-05-20T17:32:54.137Z,100532.97
2023-05-20T17:35:57.171Z,100527.81
2023-05-20T17:38:59.515Z,100537.88
2023-05-20T17:42:02.941Z,100536.63
2023-05-20T17:45:05.517Z,100537.44
2023-05-20T17:48:10.858Z,100534.63
2023-05-20T17:51:14.283Z,100524.25
2023-05-20T17:54:16.897Z,100528.53
2023-05-20T17:57:20.259Z,100537.00
2023-05-20T18:00:23.020Z,100541.34
2023-05-20T18:03:25.761Z,100530.41
2023-05-20T18:06:30.056Z,100535.34
2023-05-20T18:09:33.039Z,100532.22
2023-05-20T18:12:35.452Z,100530.03
2023-05-20T18:15:38.101Z,100530.97
2023-05-20T18:18:40.777Z,100535.41
2023-05-20T18:21:43.483Z,100532.63
2023-05-20T18:24:46.007Z,100533.66
2023-05-20T18:27:48.625Z,100533.72
2023-05-20T18:30:50.961Z,100531.16
2023-05-20T18:33:53.668Z,100536.03
2023-05-20T18:36:56.083Z,100536.06
2023-05-20T18:39:59.096Z,100537.28
2023-05-20T18:43:01.435Z,100543.47
2023-05-20T18:46:04.268Z,100540.94
2023-05-20T18:49:06.811Z,100550.91
2023-05-20T18:52:09.434Z,100545.13
2023-05-20T18:55:11.857Z,100547.16
2023-05-20T18:58:14.630Z,100549.91
2023-05-20T19:01:16.999Z,100549.03
2023-05-20T19:04:19.717Z,100553.00
2023-05-20T19:07:23.541Z,100549.41
2023-05-20T19:10:27.906Z,100552.78
2023-05-20T19:13:31.700Z,100555.19
2023-05-20T19:16:34.844Z,100563.78
2023-05-20T19:19:37.374Z,100554.59
2023-05-20T19:22:40.277Z,100568.28
2023-05-20T19:25:42.798Z,100566.22
2023-05-20T19:28:45.831Z,100573.81
2023-05-20T19:31:48.635Z,100571.66
2023-05-20T19:34:52.027Z,100580.78
2023-05-20T19:37:54.933Z,100577.56
2023-05-20T19:40:58.012Z,100586.63
2023-05-20T19:44:01.260Z,100583.63
2023-05-20T19:47:05.667Z,100582.78
2023-05-20T19:50:08.638Z,100584.00
2023-05-20T19:53:11.689Z,100582.06
2023-05-20T19:56:19.250Z,100585.16
2023-05-20T19:59:22.984Z,100582.16
2023-05-20T20:02:25.874Z,100572.19
2023-05-20T20:05:29.944Z,100574.72
2023-05-20T20:08:32.646Z,100574.62
2023-05-20T20:11:36.030Z,100582.81
2023-05-20T20:14:38.567Z,100578.94
2023-05-20T20:17:45.459Z,100576.78
2023-05-20T20:20:48.791Z,100579.16
2023-05-20T20:23:51.559Z,100584.09
2023-05-20T20:26:54.341Z,100582.06
2023-05-20T20:29:57.101Z,100580.00
2023-05-20T20:32:59.692Z,100573.16
2023-05-20T20:36:02.548Z,100569.47
2023-05-20T20:39:05.611Z,100570.75
2023-05-20T20:42:08.349Z,100567.72
2023-05-20T20:45:12.373Z,100569.81
2023-05-20T20:48:18.853Z,100571.19
2023-05-20T20:51:21.337Z,100564.88
2023-05-20T20:54:24.018Z,100562.63
2023-05-20T20:57:26.892Z,100562.78
2023-05-20T21:00:29.634Z,100561.09
2023-05-20T21:03:34.224Z,100560.69
2023-05-20T21:06:37.907Z,100557.62
2023-05-20T21:09:40.178Z,100563.22
2023-05-20T21:12:42.953Z,100579.44
2023-05-20T21:15:46.487Z,100569.37
2023-05-20T21:18:49.274Z,100565.78
2023-05-20T21:21:51.706Z,100566.81
2023-05-20T21:24:54.332Z,100568.53
2023-05-20T21:27:56.637Z,100567.25
2023-05-20T21:30:59.354Z,100567.34
2023-05-20T21:34:01.813Z,100568.84
2023-05-20T21:37:04.558Z,100565.19
2023-05-20T21:40:07.215Z,100568.94
2023-05-20T21:43:09.886Z,100569.22
2023-05-20T21:46:13.377Z,100559.97
2023-05-20T21:49:16.037Z,100559.28
2023-05-20T21:52:18.346Z,100555.75
2023-05-20T21:55:23.625Z,100559.28
2023-05-20T21:58:26.238Z,100553.44
2023-05-20T22:01:29.149Z,100555.47
2023-05-20T22:04:33.342Z,100558.34
2023-05-20T22:07:35.699Z,100562.00
2023-05-20T22:10:38.808Z,100563.25
2023-05-20T22:13:42.874Z,100566.41
2023-05-20T22:16:48.721Z,100558.50
2023-05-20T22:19:51.859Z,100564.00
2023-05-20T22:22:54.432Z,100566.81
2023-05-20T22:25:56.878Z,100561.81
2023-05-20T22:28:59.505Z,100565.75
2023-05-20T22:32:02.015Z,100558.56
2023-05-20T22:35:05.197Z,100567.78
2023-05-20T22:38:07.556Z,100576.06
2023-05-20T22:41:10.405Z,100573.84
2023-05-20T22:44:12.802Z,100573.47
2023-05-20T22:47:16.001Z,100577.09
2023-05-20T22:50:18.340Z,100571.09
2023-05-20T22:53:20.959Z,100586.37
2023-05-20T22:56:23.748Z,100581.56
2023-05-20T22:59:26.906Z,100579.06
2023-05-20T23:02:30.480Z,100581.47
2023-05-20T23:05:33.168Z,100584.09
2023-05-20T23:08:35.566Z,100583.31
2023-05-20T23:11:38.411Z,100580.81
2023-05-20T23:14:40.903Z,100588.66
2023-05-20T23:17:43.736Z,100585.00
2023-05-20T23:20:47.635Z,100574.34
2023-05-20T23:23:50.300Z,100579.72
2023-05-20T23:26:53.966Z,100584.44
2023-05-20T23:29:56.601Z,100582.47
2023-05-20T23:32:59.128Z,100589.56
2023-05-20T23:36:02.919Z,100577.44
2023-05-20T23:39:05.229Z,100581.75
2023-05-20T23:42:07.933Z,100578.59
2023-05-20T23:45:10.771Z,100587.38
2023-05-20T23:48:13.703Z,100578.50
2023-05-20T23:51:16.467Z,100581.56
2023-05-20T23:54:20.374Z,100579.59
2023-05-20T23:57:22.699Z,100565.41
